sensor_id;sensor_type;location;lat;lon;timestamp;pressure;altitude;pressure_sealevel;temperature;humidity
5679;BME280;2862;52.560;13.566;2023-03-19T00:04:55;100500.38;;;10.86;69.15
5679;BME280;2862;52.560;13.566;2023-03-19T00:15:02;100500.47;;;10.45;68.88
5679;BME280;2862;52.560;13.566;2023-03-19T00:25:07;100497.06;;;10.63;67.77
5679;BME280;2862;52.560;13.566;2023-03-19T00:35:10;100498.91;;;10.42;67.36
5679;BME280;2862;52.560;13.566;2023-03-19T00:45:14;100494.50;;;10.20;67.21
5679;BME280;2862;52.560;13.566;2023-03-19T00:55:17;100495.38;;;10.21;67.23
5679;BME280;2862;52.560;13.566;2023-03-19T01:05:22;100506.56;;;10.15;67.42
5679;BME280;2862;52.560;13.566;2023-03-19T01:15:25;100510.94;;;9.95;68.11
5679;BME280;2862;52.560;13.566;2023-03-19T01:25:29;100513.66;;;9.83;68.45
5679;BME280;2862;52.560;13.566;2023-03-19T01:35:37;100509.38;;;9.60;68.94
5679;BME280;2862;52.560;13.566;2023-03-19T01:45:44;100509.25;;;9.62;68.52
5679;BME280;2862;52.560;13.566;2023-03-19T01:56:08;100516.13;;;9.43;69.31
5679;BME280;2862;52.560;13.566;2023-03-19T02:06:31;100517.50;;;9.70;67.93
5679;BME280;2862;52.560;13.566;2023-03-19T02:16:36;100508.50;;;9.71;67.40
5679;BME280;2862;52.560;13.566;2023-03-19T02:26:41;100504.69;;;9.52;67.83
5679;BME280;2862;52.560;13.566;2023-03-19T02:36:48;100507.88;;;9.46;67.15
5679;BME280;2862;52.560;13.566;2023-03-19T02:46:54;100503.66;;;9.32;67.90
5679;BME280;2862;52.560;13.566;2023-03-19T02:56:57;100514.25;;;9.55;66.98
5679;BME280;2862;52.560;13.566;2023-03-19T03:07:02;100501.94;;;9.31;68.58
5679;BME280;2862;52.560;13.566;2023-03-19T03:17:05;100495.53;;;9.23;69.02
5679;BME280;2862;52.560;13.566;2023-03-19T03:27:11;100505.44;;;9.43;67.76
5679;BME280;2862;52.560;13.566;2023-03-19T03:37:14;100495.78;;;9.20;68.85
5679;BME280;2862;52.560;13.566;2023-03-19T03:47:19;100502.78;;;9.32;68.49
5679;BME280;2862;52.560;13.566;2023-03-19T03:57:22;100537.75;;;9.29;68.19
5679;BME280;2862;52.560;13.566;2023-03-19T04:07:27;100545.25;;;9.35;67.46
5679;BME280;2862;52.560;13.566;2023-03-19T04:17:31;100545.34;;;9.45;67.23
5679;BME280;2862;52.560;13.566;2023-03-19T04:27:35;100543.81;;;9.20;67.97
5679;BME280;2862;52.560;13.566;2023-03-19T04:37:38;100566.59;;;9.35;66.64
5679;BME280;2862;52.560;13.566;2023-03-19T04:47:43;100578.22;;;9.12;67.39
5679;BME280;2862;52.560;13.566;2023-03-19T04:57:47;100574.22;;;9.40;66.14
5679;BME280;2862;52.560;13.566;2023-03-19T05:07:54;100573.25;;;9.52;66.14
5679;BME280;2862;52.560;13.566;2023-03-19T05:17:59;100581.97;;;9.54;66.55
5679;BME280;2862;52.560;13.566;2023-03-19T05:28:15;100586.09;;;9.47;69.93
5679;BME280;2862;52.560;13.566;2023-03-19T05:38:18;100579.66;;;9.49;72.51
5679;BME280;2862;52.560;13.566;2023-03-19T05:48:30;100597.41;;;9.17;80.13
5679;BME280;2862;52.560;13.566;2023-03-19T05:58:37;100587.66;;;8.60;85.18
5679;BME280;2862;52.560;13.566;2023-03-19T06:08:42;100535.97;;;7.81;90.16
5679;BME280;2862;52.560;13.566;2023-03-19T06:18:56;100539.47;;;8.85;89.15
5679;BME280;2862;52.560;13.566;2023-03-19T06:29:00;100523.50;;;13.18;70.16
5679;BME280;2862;52.560;13.566;2023-03-19T06:39:03;100530.13;;;16.18;59.35
5679;BME280;2862;52.560;13.566;2023-03-19T06:49:08;100558.91;;;15.00;62.02
5679;BME280;2862;52.560;13.566;2023-03-19T06:59:12;100577.69;;;12.38;72.11
5679;BME280;2862;52.560;13.566;2023-03-19T07:09:16;100605.78;;;11.85;77.63
5679;BME280;2862;52.560;13.566;2023-03-19T07:19:20;100680.13;;;10.80;82.64
5679;BME280;2862;52.560;13.566;2023-03-19T07:29:25;100709.28;;;10.08;88.72
5679;BME280;2862;52.560;13.566;2023-03-19T07:39:28;100711.59;;;10.13;92.72
5679;BME280;2862;52.560;13.566;2023-03-19T07:49:33;100669.31;;;10.29;90.78
5679;BME280;2862;52.560;13.566;2023-03-19T07:59:35;100651.94;;;10.23;92.74
5679;BME280;2862;52.560;13.566;2023-03-19T08:09:39;100616.97;;;11.20;87.74
5679;BME280;2862;52.560;13.566;2023-03-19T08:19:43;100608.72;;;12.50;85.12
5679;BME280;2862;52.560;13.566;2023-03-19T08:29:47;100624.47;;;14.65;73.47
5679;BME280;2862;52.560;13.566;2023-03-19T08:39:50;100630.25;;;14.52;75.80
5679;BME280;2862;52.560;13.566;2023-03-19T08:49:54;100675.25;;;14.15;80.15
5679;BME280;2862;52.560;13.566;2023-03-19T08:59:58;100736.97;;;12.06;90.74
5679;BME280;2862;52.560;13.566;2023-03-19T09:10:02;100739.56;;;11.26;97.52
5679;BME280;2862;52.560;13.566;2023-03-19T09:20:07;100733.03;;;10.98;98.10
5679;BME280;2862;52.560;13.566;2023-03-19T09:30:12;100677.28;;;10.40;100.00
5679;BME280;2862;52.560;13.566;2023-03-19T09:40:22;100646.56;;;9.80;100.00
5679;BME280;2862;52.560;13.566;2023-03-19T09:50:28;100643.19;;;9.78;100.00
5679;BME280;2862;52.560;13.566;2023-03-19T10:00:36;100652.28;;;9.87;100.00
5679;BME280;2862;52.560;13.566;2023-03-19T10:10:49;100622.16;;;9.84;100.00
5679;BME280;2862;52.560;13.566;2023-03-19T10:20:57;100626.03;;;9.92;100.00
5679;BME280;2862;52.560;13.566;2023-03-19T10:31:13;100623.69;;;10.62;100.00
5679;BME280;2862;52.560;13.566;2023-03-19T10:41:26;100627.09;;;11.56;100.00
5679;BME280;2862;52.560;13.566;2023-03-19T10:51:34;100628.28;;;11.73;100.00
5679;BME280;2862;52.560;13.566;2023-03-19T11:01:40;100625.09;;;11.89;99.86
5679;BME280;2862;52.560;13.566;2023-03-19T11:11:46;100619.34;;;12.42;98.84
5679;BME280;2862;52.560;13.566;2023-03-19T11:22:07;100620.19;;;12.52;97.34
5679;BME280;2862;52.560;13.566;2023-03-19T11:32:24;100622.41;;;12.66;95.18
5679;BME280;2862;52.560;13.566;2023-03-19T11:42:46;100615.84;;;13.08;92.54
5679;BME280;2862;52.560;13.566;2023-03-19T11:53:02;100599.88;;;13.71;89.12
5679;BME280;2862;52.560;13.566;2023-03-19T12:14:01;100610.66;;;14.24;87.77
5679;BME280;2862;52.560;13.566;2023-03-19T12:24:12;100612.16;;;14.27;87.10
5679;BME280;2862;52.560;13.566;2023-03-19T12:34:25;100611.72;;;14.49;86.13
5679;BME280;2862;52.560;13.566;2023-03-19T12:44:33;100598.44;;;14.48;88.11
5679;BME280;2862;52.560;13.566;2023-03-19T12:54:42;100596.66;;;14.82;85.12
5679;BME280;2862;52.560;13.566;2023-03-19T13:04:51;100596.25;;;14.95;85.36
5679;BME280;2862;52.560;13.566;2023-03-19T13:15:01;100599.34;;;15.43;83.14
5679;BME280;2862;52.560;13.566;2023-03-19T13:25:14;100604.03;;;15.66;81.45
5679;BME280;2862;52.560;13.566;2023-03-19T13:35:34;100585.28;;;15.65;80.72
5679;BME280;2862;52.560;13.566;2023-03-19T13:45:39;100591.28;;;15.51;81.78
5679;BME280;2862;52.560;13.566;2023-03-19T13:56:02;100577.56;;;15.70;79.86
5679;BME280;2862;52.560;13.566;2023-03-19T14:06:31;100573.72;;;15.81;77.82
5679;BME280;2862;52.560;13.566;2023-03-19T14:16:41;100564.47;;;15.83;76.57
5679;BME280;2862;52.560;13.566;2023-03-19T14:26:47;100560.09;;;15.90;74.37
5679;BME280;2862;52.560;13.566;2023-03-19T14:36:57;100558.91;;;15.93;75.61
5679;BME280;2862;52.560;13.566;2023-03-19T14:57:39;100559.06;;;16.00;74.07
5679;BME280;2862;52.560;13.566;2023-03-19T15:07:44;100555.88;;;16.04;73.76
5679;BME280;2862;52.560;13.566;2023-03-19T15:17:55;100545.25;;;16.11;73.77
5679;BME280;2862;52.560;13.566;2023-03-19T15:28:07;100542.56;;;16.03;70.00
5679;BME280;2862;52.560;13.566;2023-03-19T15:38:15;100549.94;;;15.68;68.67
5679;BME280;2862;52.560;13.566;2023-03-19T15:48:21;100543.72;;;15.68;67.01
5679;BME280;2862;52.560;13.566;2023-03-19T15:58:29;100554.41;;;15.59;66.65
5679;BME280;2862;52.560;13.566;2023-03-19T16:08:33;100556.97;;;15.61;68.38
5679;BME280;2862;52.560;13.566;2023-03-19T16:18:47;100568.25;;;15.56;66.59
5679;BME280;2862;52.560;13.566;2023-03-19T16:28:59;100574.94;;;15.52;67.54
5679;BME280;2862;52.560;13.566;2023-03-19T16:39:22;100575.59;;;15.38;68.13
5679;BME280;2862;52.560;13.566;2023-03-19T16:49:25;100580.09;;;15.29;68.64
5679;BME280;2862;52.560;13.566;2023-03-19T16:59:30;100583.41;;;15.15;68.12
5679;BME280;2862;52.560;13.566;2023-03-19T17:09:33;100596.81;;;15.07;69.70
5679;BME280;2862;52.560;13.566;2023-03-19T17:19:37;100593.88;;;14.92;71.15
5679;BME280;2862;52.560;13.566;2023-03-19T17:29:41;100590.72;;;14.71;72.68
5679;BME280;2862;52.560;13.566;2023-03-19T17:39:45;100611.00;;;14.65;71.91
5679;BME280;2862;52.560;13.566;2023-03-19T17:49:48;100607.66;;;14.45;74.60
5679;BME280;2862;52.560;13.566;2023-03-19T17:59:52;100617.25;;;14.30;75.81
5679;BME280;2862;52.560;13.566;2023-03-19T18:09:55;100614.97;;;14.17;75.54
5679;BME280;2862;52.560;13.566;2023-03-19T18:19:59;100625.78;;;14.07;74.77
5679;BME280;2862;52.560;13.566;2023-03-19T18:30:03;100635.22;;;13.94;73.84
5679;BME280;2862;52.560;13.566;2023-03-19T18:40:11;100642.78;;;13.80;73.98
5679;BME280;2862;52.560;13.566;2023-03-19T18:50:19;100631.44;;;13.87;73.04
5679;BME280;2862;52.560;13.566;2023-03-19T19:00:25;100647.69;;;13.67;73.61
5679;BME280;2862;52.560;13.566;2023-03-19T19:10:33;100653.41;;;13.54;74.31
5679;BME280;2862;52.560;13.566;2023-03-19T19:20:38;100658.78;;;13.54;74.30
5679;BME280;2862;52.560;13.566;2023-03-19T19:30:42;100671.66;;;13.51;74.83
5679;BME280;2862;52.560;13.566;2023-03-19T19:40:48;100673.94;;;13.46;75.33
5679;BME280;2862;52.560;13.566;2023-03-19T19:50:54;100675.78;;;13.45;76.24
5679;BME280;2862;52.560;13.566;2023-03-19T20:00:59;100676.63;;;13.46;76.65
5679;BME280;2862;52.560;13.566;2023-03-19T20:11:13;100690.19;;;13.44;76.67
5679;BME280;2862;52.560;13.566;2023-03-19T20:21:18;100685.66;;;13.45;76.55
5679;BME280;2862;52.560;13.566;2023-03-19T20:31:24;100692.91;;;13.35;76.64
5679;BME280;2862;52.560;13.566;2023-03-19T20:41:29;100692.38;;;13.31;76.94
5679;BME280;2862;52.560;13.566;2023-03-19T20:51:32;100694.94;;;13.13;78.48
5679;BME280;2862;52.560;13.566;2023-03-19T21:01:36;100699.16;;;13.16;79.40
5679;BME280;2862;52.560;13.566;2023-03-19T21:11:40;100700.56;;;13.20;80.53
5679;BME280;2862;52.560;13.566;2023-03-19T21:21:45;100692.81;;;13.07;80.98
5679;BME280;2862;52.560;13.566;2023-03-19T21:31:49;100690.44;;;13.04;81.80
5679;BME280;2862;52.560;13.566;2023-03-19T21:41:56;100695.09;;;13.02;81.83
5679;BME280;2862;52.560;13.566;2023-03-19T21:51:59;100687.47;;;12.97;82.26
5679;BME280;2862;52.560;13.566;2023-03-19T22:02:14;100688.47;;;12.96;82.33
5679;BME280;2862;52.560;13.566;2023-03-19T22:12:34;100686.22;;;12.92;82.70
5679;BME280;2862;52.560;13.566;2023-03-19T22:22:39;100680.00;;;12.82;83.31
5679;BME280;2862;52.560;13.566;2023-03-19T22:32:42;100684.69;;;12.80;83.17
5679;BME280;2862;52.560;13.566;2023-03-19T22:42:47;100677.47;;;12.80;83.47
5679;BME280;2862;52.560;13.566;2023-03-19T22:52:51;100682.53;;;12.83;83.74
5679;BME280;2862;52.560;13.566;2023-03-19T23:02:56;100679.31;;;12.80;83.94
5679;BME280;2862;52.560;13.566;2023-03-19T23:13:02;100671.25;;;12.80;84.57
5679;BME280;2862;52.560;13.566;2023-03-19T23:23:10;100676.34;;;12.83;84.76
5679;BME280;2862;52.560;13.566;2023-03-19T23:33:14;100666.16;;;12.86;84.82
5679;BME280;2862;52.560;13.566;2023-03-19T23:43:22;100677.47;;;12.80;83.78
5679;BME280;2862;52.560;13.566;2023-03-19T23:53:27;100669.16;;;12.73;84.94
